Willard, Montana
Current Conditions -  °F | °C
As of 11:51 AM on Friday 24 Oct 2014 (Local Time) from KBHK Reporting Station
Overcast Overcast  
Wind Chill: 59°   Ceiling: 11000
Heat Index: 59°   Visibility: 10mi
Dew Point: 34°   Wind: 12mph
Humidity: 39%   Direction: 300°WNW
Pressure: 30.04"   Gusts: 22mph
Location:  46.19°N, 104.38°W
Report Text: KBHK 241751Z AUTO 30010G19KT 10SM OVC110 15/01 A3004 RMK AO2 SLP170 T01500011 10161 20056 51012
Loading
Personal Weather Stations






























Interactive Weather Map
Tropical Storm Tracking
New forecast layout! Learn more

10-Day Weather Forecast

Advertisements
Track Severe Weather on mobile